JAA ATPL Question 3315

0 Replies
2,025 votes ยท 22 hours left
In Zurich during a summer day the following weather observations were taken:160450Z 23015KT 3000 +RA SCT008 SCT020 OVC030 13/12 Q1010 NOSIG =160650Z 25008KT 6000 SCT040 BKN090 18/14 Q1010 RERA NOSIG =160850Z 25006KT 8000 SCT040 SCT100 19/15 Q1009 NOSIG =161050Z 24008KT 9999 SCT040 SCT100 21/15 Q1008 #atpl #jaa #dgca #pilot #aviation
Some text some message..